ADDS METAR Data INFO
IDs: Format: Raw Decoded Include TAF

Data at: 2207 UTC 24 Jun 2018

KEDJ 241335Z AUTO 26007KT 10SM SCT009 20/18 A2991 RMK AO1
KEDJ 241315Z AUTO 26006KT 10SM CLR 20/19 A2991 RMK AO1
KEDJ 241255Z AUTO 23005KT 10SM FEW007 FEW060 19/19 A2990 RMK AO1
KEDJ 241235Z AUTO 26005KT 10SM FEW007 SCT060 19/19 A2991 RMK AO1
KEDJ 241215Z AUTO 26005KT 9SM CLR 18/18 A2991 RMK AO1
KEDJ 241155Z AUTO 24005KT 8SM CLR 18/18 A2991 RMK AO1
KEDJ 241135Z AUTO 24004KT 7SM CLR 18/18 A2991 RMK AO1
KEDJ 241115Z AUTO 24004KT 6SM CLR 17/17 A2990 RMK AO1
KEDJ 241055Z AUTO 22003KT 6SM CLR 17/17 A2989 RMK AO1
KEDJ 241035Z AUTO 22003KT 7SM CLR 17/17 A2989 RMK AO1
KEDJ 241015Z AUTO 20003KT 8SM FEW021 17/17 A2988 RMK AO1
KEDJ 240955Z AUTO 00000KT 9SM SCT021 SCT030 17/17 A2989 RMK AO1
KEDJ 240935Z AUTO 21003KT 10SM FEW025 17/17 A2988 RMK AO1
KEDJ 240915Z AUTO 22003KT 10SM FEW023 17/17 A2987 RMK AO1
KEDJ 240855Z AUTO 22003KT 10SM FEW030 FEW048 17/17 A2987 RMK AO1
KEDJ 240835Z AUTO 22004KT 10SM SCT048 17/17 A2987 RMK AO1
KEDJ 240815Z AUTO 22005KT 10SM CLR 17/17 A2987 RMK AO1
KEDJ 240755Z AUTO 23005KT 10SM CLR 17/17 A2986 RMK AO1
KEDJ 240735Z AUTO 22005KT 10SM CLR 17/17 A2986 RMK AO1
KEDJ 240715Z AUTO 22005KT 10SM FEW065 18/18 A2986 RMK AO1
KEDJ 240655Z AUTO 23004KT 10SM BKN065 18/18 A2986 RMK AO1
KEDJ 240635Z AUTO 22004KT 10SM FEW065 18/18 A2986 RMK AO1
KEDJ 240615Z AUTO 23005KT 10SM FEW070 18/18 A2986 RMK AO1
KEDJ 240555Z AUTO 24004KT 10SM BKN070 18/18 A2985 RMK AO1
KEDJ 240535Z AUTO 24005KT 10SM FEW028 SCT070 19/19 A2986 RMK AO1
KEDJ 240515Z AUTO 24006KT 10SM FEW029 SCT036 19/19 A2985 RMK AO1
KEDJ 240455Z AUTO 24005KT 10SM SCT025 SCT033 BKN039 19/19 A2985 RMK AO1
KEDJ 240435Z AUTO 23005KT 10SM BKN025 BKN039 OVC075 19/19 A2985 RMK AO1
KEDJ 240415Z AUTO 23004KT 10SM FEW027 BKN075 19/18 A2984 RMK AO1
KEDJ 240355Z AUTO 23005KT 10SM OVC075 19/18 A2984 RMK AO1
KEDJ 240335Z AUTO 24004KT 10SM BKN075 19/18 A2984 RMK AO1
KEDJ 240315Z AUTO 23004KT 10SM OVC075 20/18 A2984 RMK AO1
KEDJ 240255Z AUTO 23003KT 10SM OVC075 20/18 A2984 RMK AO1
KEDJ 240235Z AUTO 22003KT 10SM BKN075 20/17 A2984 RMK AO1
KEDJ 240215Z AUTO 25004KT 10SM FEW050 BKN075 20/16 A2983 RMK AO1
KEDJ 240155Z AUTO 26007KT 10SM BKN065 21/16 A2983 RMK AO1
KEDJ 240135Z AUTO 26007KT 10SM OVC065 21/16 A2983 RMK AO1
KEDJ 240115Z AUTO 25007KT 10SM OVC065 21/17 A2982 RMK AO1
KEDJ 240055Z AUTO 25008KT 10SM BKN065 21/17 A2982 RMK AO1
KEDJ 240035Z AUTO 25006KT 10SM BKN065 22/17 A2982 RMK AO1
KEDJ 240015Z AUTO 25006KT 10SM SCT034 BKN055 22/17 A2981 RMK AO1
KEDJ 232355Z AUTO 27007KT 10SM BKN034 BKN046 BKN065 22/17 A2981 RMK AO1
KEDJ 232335Z AUTO 27005KT 10SM FEW035 SCT044 SCT060 23/17 A2980 RMK AO1
KEDJ 232315Z AUTO 27007KT 10SM SCT033 SCT070 23/17 A2980 RMK AO1
KEDJ 232255Z AUTO 25009KT 10SM BKN033 23/17 A2980 RMK AO1
KEDJ 232235Z AUTO 27010KT 10SM FEW037 24/17 A2979 RMK AO1
KEDJ 232215Z AUTO 25013KT 10SM FEW029 SCT037 24/17 A2979 RMK AO1
KEDJ 232155Z AUTO 27011KT 10SM FEW029 FEW070 24/17 A2979 RMK AO1
KEDJ 232135Z AUTO 26011KT 10SM FEW029 SCT070 24/17 A2979 RMK AO1
KEDJ 232115Z AUTO 25008KT 10SM FEW033 SCT060 23/17 A2979 RMK AO1
KEDJ 232055Z AUTO 25010KT 10SM FEW033 SCT042 SCT060 23/17 A2979 RMK AO1
KEDJ 232035Z AUTO 26010KT 10SM FEW031 SCT060 24/17 A2979 RMK AO1
KEDJ 232015Z AUTO 25011KT 10SM FEW031 FEW060 24/17 A2979 RMK AO1
KEDJ 231955Z AUTO 25012KT 10SM FEW031 24/17 A2978 RMK AO1
KEDJ 231935Z AUTO 27011KT 10SM FEW060 24/17 A2978 RMK AO1
KEDJ 231915Z AUTO 24011G14KT 10SM FEW022 FEW036 SCT060 22/18 A2979 RMK AO1
KEDJ 231855Z AUTO 26010G15KT 10SM FEW060 FEW070 23/18 A2978 RMK AO1
KEDJ 231835Z AUTO 26010KT 10SM SCT050 22/18 A2978 RMK AO1
KEDJ 231815Z AUTO 26012G18KT 10SM FEW023 FEW033 SCT050 22/17 A2978 RMK AO1
KEDJ 231755Z AUTO 25008KT 10SM SCT023 SCT033 BKN042 23/18 A2978 RMK AO1
KEDJ 231735Z AUTO 27010KT 10SM SCT022 SCT027 SCT034 22/18 A2978 RMK AO1
KEDJ 231715Z AUTO 28009KT 10SM FEW040 FEW049 22/18 A2978 RMK AO1
KEDJ 231655Z AUTO 26010KT 10SM FEW029 BKN042 BKN049 20/18 A2978 RMK AO1
KEDJ 231635Z AUTO 25013G17KT 10SM FEW019 SCT026 BKN032 20/18 A2978 RMK AO1
KEDJ 231615Z AUTO 26011KT 10SM FEW018 BKN026 BKN032 21/18 A2979 RMK AO1
KEDJ 231555Z AUTO 26015G19KT 10SM FEW015 BKN020 BKN029 20/18 A2978 RMK AO1
KEDJ 231535Z AUTO 25012G16KT 10SM BKN016 BKN024 21/18 A2978 RMK AO1
KEDJ 231515Z AUTO 25011KT 10SM SCT016 BKN020 BKN028 20/18 A2977 RMK AO1
KEDJ 231455Z AUTO 25009G15KT 10SM SCT016 BKN023 BKN029 20/18 A2977 RMK AO1
KEDJ 231435Z AUTO 26011KT 10SM FEW014 SCT024 BKN036 20/18 A2977 RMK AO1
KEDJ 231415Z AUTO 25008KT 10SM FEW012 SCT030 OVC036 19/18 A2977 RMK AO1
KEDJ 231355Z AUTO 25009KT 10SM BKN012 BKN021 OVC034 19/18 A2977 RMK AO1
KEDJ 231335Z AUTO 25008KT 10SM FEW014 BKN026 BKN034 19/18 A2976 RMK AO1
KEDJ 231315Z AUTO 24010KT 10SM SCT012 BKN026 19/18 A2976 RMK AO1
KEDJ 231255Z AUTO 24010KT 10SM SCT012 OVC028 19/19 A2976 RMK AO1
KEDJ 231235Z AUTO 24011KT 10SM SCT012 OVC026 18/18 A2975 RMK AO1
KEDJ 231215Z AUTO 23011KT 10SM BKN012 OVC024 18/18 A2976 RMK AO1
KEDJ 231200Z AUTO 24011KT 10SM SCT012 BKN020 BKN025 18/18 A2975 RMK AO1
KEDJ 231135Z AUTO 22009KT 10SM FEW012 BKN018 18/18 A2975 RMK AO1
KEDJ 231115Z AUTO 23009KT 10SM BKN020 18/18 A2974 RMK AO1
KEDJ 231055Z AUTO 24010KT 10SM BKN024 18/18 A2973 RMK AO1
KEDJ 231035Z AUTO 24010KT 10SM BKN022 18/18 A2973 RMK AO1
KEDJ 231015Z AUTO 23010KT 10SM FEW009 OVC022 18/18 A2972 RMK AO1